Portada
METAR-TAF:

METAR-TAF

Aeropuertos :

Ghadames, Libia

latitud: 30-08N, longitud: 009-30E, altitud: 346 m

METAR: falta

Hora: 13:07 (11:07 UTC)

Pronóstico

El informe se hizo hace 12 horas y 7 minutos, a las 23:00 UTC
Pronóstico válido del 19 a las 00 UTC al 19 a las 24 UTC
Viento 14 kt del oeste-suroeste
Visibilidad: 6000 m
Probabilidad 30%
entre TE y MP UTC
Visibilidad: 3000 m
Ventisca alta de arena
Evolucionando progresivamente
del 19 a las 21 UTC al 21 a las 23 UTC
Viento 2 kt con dirección variable

TAF: HLTD 182300Z 1900/1924 VRB02KT 8000 NSC BECMG1912/1914 24014KT 6000 PROB30 TEMPO1912/1921 3000 BLSA BECMG 1921/2123 VRB02KT

Observaciones y pronósticos meteorológicos de más de 4000 aeropuertos (mensajes METAR y TAF).

Los puntos amarillos y rojos representan las estaciones disponibles.

Ponga el ratón en el punto deseado para ver el nombre de la estación.

Haga clic para ver las observaciones y los pronósticos meteorológicos.

Para cambiar el mapa : haga clic en los botones verdes con una cruz de color negro para hacer un zoom, en el botón verde con un guión para alejar o en las flechas verdes para mapas adyacentes.


METAR-TAF: